sensor_id;sensor_type;location;lat;lon;timestamp;P1;durP1;ratioP1;P2;durP2;ratioP2
80557;SDS011;69901;43.524;-5.636;2023-11-21T00:01:57;12.88;;;11.35;;
80557;SDS011;69901;43.524;-5.636;2023-11-21T00:04:23;13.55;;;11.65;;
80557;SDS011;69901;43.524;-5.636;2023-11-21T00:06:49;15.63;;;11.63;;
80557;SDS011;69901;43.524;-5.636;2023-11-21T00:09:14;14.10;;;12.60;;
80557;SDS011;69901;43.524;-5.636;2023-11-21T00:11:44;14.50;;;12.15;;
80557;SDS011;69901;43.524;-5.636;2023-11-21T00:14:12;14.82;;;12.73;;
80557;SDS011;69901;43.524;-5.636;2023-11-21T00:16:40;14.73;;;12.80;;
80557;SDS011;69901;43.524;-5.636;2023-11-21T00:19:06;14.97;;;12.70;;
80557;SDS011;69901;43.524;-5.636;2023-11-21T00:21:32;13.80;;;11.52;;
80557;SDS011;69901;43.524;-5.636;2023-11-21T00:23:57;12.83;;;10.97;;
80557;SDS011;69901;43.524;-5.636;2023-11-21T00:26:23;15.70;;;12.80;;
80557;SDS011;69901;43.524;-5.636;2023-11-21T00:28:49;16.05;;;12.75;;
80557;SDS011;69901;43.524;-5.636;2023-11-21T00:31:15;16.23;;;12.27;;
80557;SDS011;69901;43.524;-5.636;2023-11-21T00:33:41;16.23;;;12.87;;
80557;SDS011;69901;43.524;-5.636;2023-11-21T00:36:07;15.80;;;13.63;;
80557;SDS011;69901;43.524;-5.636;2023-11-21T00:38:35;15.65;;;14.13;;
80557;SDS011;69901;43.524;-5.636;2023-11-21T00:41:01;17.40;;;15.68;;
80557;SDS011;69901;43.524;-5.636;2023-11-21T00:43:28;18.67;;;16.87;;
80557;SDS011;69901;43.524;-5.636;2023-11-21T00:45:53;18.20;;;16.75;;
80557;SDS011;69901;43.524;-5.636;2023-11-21T00:48:19;17.97;;;16.17;;
80557;SDS011;69901;43.524;-5.636;2023-11-21T00:50:44;16.00;;;14.50;;
80557;SDS011;69901;43.524;-5.636;2023-11-21T00:53:10;16.17;;;14.47;;
80557;SDS011;69901;43.524;-5.636;2023-11-21T00:55:36;14.52;;;13.00;;
80557;SDS011;69901;43.524;-5.636;2023-11-21T00:58:04;13.95;;;12.52;;
80557;SDS011;69901;43.524;-5.636;2023-11-21T01:00:31;14.13;;;12.80;;
80557;SDS011;69901;43.524;-5.636;2023-11-21T01:02:58;14.88;;;13.23;;
80557;SDS011;69901;43.524;-5.636;2023-11-21T01:05:23;14.57;;;13.27;;
80557;SDS011;69901;43.524;-5.636;2023-11-21T01:07:49;15.13;;;13.73;;
80557;SDS011;69901;43.524;-5.636;2023-11-21T01:10:15;16.08;;;14.65;;
80557;SDS011;69901;43.524;-5.636;2023-11-21T01:12:42;16.13;;;13.00;;
80557;SDS011;69901;43.524;-5.636;2023-11-21T01:15:08;14.15;;;12.73;;
80557;SDS011;69901;43.524;-5.636;2023-11-21T01:17:34;13.88;;;12.68;;
80557;SDS011;69901;43.524;-5.636;2023-11-21T01:20:00;14.35;;;12.80;;
80557;SDS011;69901;43.524;-5.636;2023-11-21T01:22:27;17.17;;;12.10;;
80557;SDS011;69901;43.524;-5.636;2023-11-21T01:24:53;13.52;;;12.18;;
80557;SDS011;69901;43.524;-5.636;2023-11-21T01:27:19;16.48;;;12.65;;
80557;SDS011;69901;43.524;-5.636;2023-11-21T01:29:45;15.20;;;11.97;;
80557;SDS011;69901;43.524;-5.636;2023-11-21T01:32:10;12.83;;;11.47;;
80557;SDS011;69901;43.524;-5.636;2023-11-21T01:34:36;14.00;;;12.55;;
80557;SDS011;69901;43.524;-5.636;2023-11-21T01:37:02;15.97;;;14.47;;
80557;SDS011;69901;43.524;-5.636;2023-11-21T01:39:29;14.57;;;11.38;;
80557;SDS011;69901;43.524;-5.636;2023-11-21T01:41:55;16.33;;;14.20;;
80557;SDS011;69901;43.524;-5.636;2023-11-21T01:44:23;16.13;;;14.48;;
80557;SDS011;69901;43.524;-5.636;2023-11-21T01:46:50;17.70;;;14.00;;
80557;SDS011;69901;43.524;-5.636;2023-11-21T01:49:15;13.80;;;12.63;;
80557;SDS011;69901;43.524;-5.636;2023-11-21T01:51:43;18.42;;;14.43;;
80557;SDS011;69901;43.524;-5.636;2023-11-21T01:54:11;14.90;;;13.40;;
80557;SDS011;69901;43.524;-5.636;2023-11-21T01:56:37;15.60;;;14.07;;
80557;SDS011;69901;43.524;-5.636;2023-11-21T01:59:02;14.82;;;12.55;;
80557;SDS011;69901;43.524;-5.636;2023-11-21T02:01:28;14.27;;;12.83;;
80557;SDS011;69901;43.524;-5.636;2023-11-21T02:03:54;14.05;;;12.15;;
80557;SDS011;69901;43.524;-5.636;2023-11-21T02:06:21;16.63;;;12.87;;
80557;SDS011;69901;43.524;-5.636;2023-11-21T02:08:47;13.07;;;11.85;;
80557;SDS011;69901;43.524;-5.636;2023-11-21T02:11:14;14.82;;;13.50;;
80557;SDS011;69901;43.524;-5.636;2023-11-21T02:13:39;13.73;;;12.30;;
80557;SDS011;69901;43.524;-5.636;2023-11-21T02:16:09;14.50;;;13.00;;
80557;SDS011;69901;43.524;-5.636;2023-11-21T02:18:37;14.73;;;13.18;;
80557;SDS011;69901;43.524;-5.636;2023-11-21T02:21:04;14.82;;;13.38;;
80557;SDS011;69901;43.524;-5.636;2023-11-21T02:23:30;17.97;;;15.17;;
80557;SDS011;69901;43.524;-5.636;2023-11-21T02:25:55;17.15;;;15.45;;
80557;SDS011;69901;43.524;-5.636;2023-11-21T02:28:21;18.77;;;13.87;;
80557;SDS011;69901;43.524;-5.636;2023-11-21T02:30:51;17.02;;;11.70;;
80557;SDS011;69901;43.524;-5.636;2023-11-21T02:33:21;15.60;;;11.10;;
80557;SDS011;69901;43.524;-5.636;2023-11-21T02:35:47;14.83;;;11.47;;
80557;SDS011;69901;43.524;-5.636;2023-11-21T02:38:13;16.80;;;11.15;;
80557;SDS011;69901;43.524;-5.636;2023-11-21T02:40:38;18.25;;;12.65;;
80557;SDS011;69901;43.524;-5.636;2023-11-21T02:43:04;21.23;;;13.53;;
80557;SDS011;69901;43.524;-5.636;2023-11-21T02:45:31;15.23;;;13.52;;
80557;SDS011;69901;43.524;-5.636;2023-11-21T02:47:57;17.33;;;13.52;;
80557;SDS011;69901;43.524;-5.636;2023-11-21T02:50:23;15.07;;;13.20;;
80557;SDS011;69901;43.524;-5.636;2023-11-21T02:52:49;17.70;;;13.65;;
80557;SDS011;69901;43.524;-5.636;2023-11-21T02:55:15;17.10;;;14.15;;
80557;SDS011;69901;43.524;-5.636;2023-11-21T02:57:41;19.83;;;14.57;;
80557;SDS011;69901;43.524;-5.636;2023-11-21T03:00:06;17.60;;;14.45;;
80557;SDS011;69901;43.524;-5.636;2023-11-21T03:02:33;15.77;;;13.88;;
80557;SDS011;69901;43.524;-5.636;2023-11-21T03:05:01;18.85;;;14.23;;
80557;SDS011;69901;43.524;-5.636;2023-11-21T03:07:27;22.97;;;14.23;;
80557;SDS011;69901;43.524;-5.636;2023-11-21T03:09:53;15.60;;;12.82;;
80557;SDS011;69901;43.524;-5.636;2023-11-21T03:12:18;16.50;;;12.90;;
80557;SDS011;69901;43.524;-5.636;2023-11-21T03:14:44;17.80;;;13.38;;
80557;SDS011;69901;43.524;-5.636;2023-11-21T03:17:10;15.60;;;14.03;;
80557;SDS011;69901;43.524;-5.636;2023-11-21T03:19:36;16.55;;;12.98;;
80557;SDS011;69901;43.524;-5.636;2023-11-21T03:22:02;17.50;;;13.70;;
80557;SDS011;69901;43.524;-5.636;2023-11-21T03:24:29;16.42;;;13.38;;
80557;SDS011;69901;43.524;-5.636;2023-11-21T03:26:54;18.37;;;13.60;;
80557;SDS011;69901;43.524;-5.636;2023-11-21T03:29:20;17.20;;;12.57;;
80557;SDS011;69901;43.524;-5.636;2023-11-21T03:31:45;15.70;;;13.87;;
80557;SDS011;69901;43.524;-5.636;2023-11-21T03:34:15;20.30;;;13.67;;
80557;SDS011;69901;43.524;-5.636;2023-11-21T03:36:48;14.15;;;12.82;;
80557;SDS011;69901;43.524;-5.636;2023-11-21T03:39:14;14.17;;;12.63;;
80557;SDS011;69901;43.524;-5.636;2023-11-21T03:41:39;15.98;;;13.98;;
80557;SDS011;69901;43.524;-5.636;2023-11-21T03:44:05;14.53;;;13.17;;
80557;SDS011;69901;43.524;-5.636;2023-11-21T03:46:30;16.67;;;14.80;;
80557;SDS011;69901;43.524;-5.636;2023-11-21T03:48:56;14.90;;;12.97;;
80557;SDS011;69901;43.524;-5.636;2023-11-21T03:51:21;16.97;;;14.60;;
80557;SDS011;69901;43.524;-5.636;2023-11-21T03:53:47;16.73;;;15.13;;
80557;SDS011;69901;43.524;-5.636;2023-11-21T03:56:13;16.67;;;14.90;;
80557;SDS011;69901;43.524;-5.636;2023-11-21T03:58:39;16.60;;;14.95;;
80557;SDS011;69901;43.524;-5.636;2023-11-21T04:01:05;17.20;;;15.48;;
80557;SDS011;69901;43.524;-5.636;2023-11-21T04:03:31;17.57;;;16.07;;
80557;SDS011;69901;43.524;-5.636;2023-11-21T04:05:56;18.65;;;16.88;;
80557;SDS011;69901;43.524;-5.636;2023-11-21T04:08:22;17.33;;;15.83;;
80557;SDS011;69901;43.524;-5.636;2023-11-21T04:10:47;17.03;;;15.37;;
80557;SDS011;69901;43.524;-5.636;2023-11-21T04:13:13;17.95;;;16.30;;
80557;SDS011;69901;43.524;-5.636;2023-11-21T04:15:39;16.00;;;14.70;;
80557;SDS011;69901;43.524;-5.636;2023-11-21T04:18:04;16.17;;;14.65;;
80557;SDS011;69901;43.524;-5.636;2023-11-21T04:20:30;15.53;;;13.97;;
80557;SDS011;69901;43.524;-5.636;2023-11-21T04:22:55;14.20;;;12.90;;
80557;SDS011;69901;43.524;-5.636;2023-11-21T04:25:21;16.05;;;14.55;;
80557;SDS011;69901;43.524;-5.636;2023-11-21T04:27:48;16.77;;;15.00;;
80557;SDS011;69901;43.524;-5.636;2023-11-21T04:30:13;14.77;;;13.38;;
80557;SDS011;69901;43.524;-5.636;2023-11-21T04:32:39;15.27;;;13.70;;
80557;SDS011;69901;43.524;-5.636;2023-11-21T04:35:05;15.27;;;13.68;;
80557;SDS011;69901;43.524;-5.636;2023-11-21T04:37:31;15.20;;;13.15;;
80557;SDS011;69901;43.524;-5.636;2023-11-21T04:39:56;15.40;;;13.80;;
80557;SDS011;69901;43.524;-5.636;2023-11-21T04:42:22;17.07;;;12.83;;
80557;SDS011;69901;43.524;-5.636;2023-11-21T04:44:48;13.18;;;11.75;;
80557;SDS011;69901;43.524;-5.636;2023-11-21T04:47:14;20.63;;;18.42;;
80557;SDS011;69901;43.524;-5.636;2023-11-21T04:49:41;18.93;;;17.00;;
80557;SDS011;69901;43.524;-5.636;2023-11-21T04:52:08;20.17;;;18.08;;
80557;SDS011;69901;43.524;-5.636;2023-11-21T04:54:34;21.85;;;19.55;;
80557;SDS011;69901;43.524;-5.636;2023-11-21T04:57:00;22.87;;;18.40;;
80557;SDS011;69901;43.524;-5.636;2023-11-21T04:59:26;26.63;;;18.73;;
80557;SDS011;69901;43.524;-5.636;2023-11-21T05:01:52;21.33;;;15.57;;
80557;SDS011;69901;43.524;-5.636;2023-11-21T05:04:19;16.33;;;10.50;;
80557;SDS011;69901;43.524;-5.636;2023-11-21T05:06:44;15.80;;;11.02;;
80557;SDS011;69901;43.524;-5.636;2023-11-21T05:09:11;17.45;;;10.05;;
80557;SDS011;69901;43.524;-5.636;2023-11-21T05:11:37;15.98;;;9.40;;
80557;SDS011;69901;43.524;-5.636;2023-11-21T05:14:04;13.20;;;8.70;;
80557;SDS011;69901;43.524;-5.636;2023-11-21T05:16:30;16.13;;;10.07;;
80557;SDS011;69901;43.524;-5.636;2023-11-21T05:18:56;15.68;;;9.07;;
80557;SDS011;69901;43.524;-5.636;2023-11-21T05:21:25;15.55;;;9.43;;
80557;SDS011;69901;43.524;-5.636;2023-11-21T05:23:51;13.33;;;9.10;;
80557;SDS011;69901;43.524;-5.636;2023-11-21T05:26:17;12.15;;;8.43;;
80557;SDS011;69901;43.524;-5.636;2023-11-21T05:28:42;14.90;;;9.07;;
80557;SDS011;69901;43.524;-5.636;2023-11-21T05:31:08;14.97;;;9.73;;
80557;SDS011;69901;43.524;-5.636;2023-11-21T05:33:33;14.98;;;9.43;;
80557;SDS011;69901;43.524;-5.636;2023-11-21T05:35:59;17.63;;;8.13;;
80557;SDS011;69901;43.524;-5.636;2023-11-21T05:38:25;13.73;;;9.57;;
80557;SDS011;69901;43.524;-5.636;2023-11-21T05:40:51;14.95;;;10.60;;
80557;SDS011;69901;43.524;-5.636;2023-11-21T05:43:16;13.57;;;10.43;;
80557;SDS011;69901;43.524;-5.636;2023-11-21T05:45:41;14.98;;;11.05;;
80557;SDS011;69901;43.524;-5.636;2023-11-21T05:48:07;17.80;;;10.80;;
80557;SDS011;69901;43.524;-5.636;2023-11-21T05:50:32;15.90;;;10.53;;
80557;SDS011;69901;43.524;-5.636;2023-11-21T05:52:58;16.48;;;11.13;;
80557;SDS011;69901;43.524;-5.636;2023-11-21T05:55:25;15.47;;;13.80;;
80557;SDS011;69901;43.524;-5.636;2023-11-21T05:57:51;12.63;;;10.43;;
80557;SDS011;69901;43.524;-5.636;2023-11-21T06:00:17;13.50;;;10.93;;
80557;SDS011;69901;43.524;-5.636;2023-11-21T06:02:49;12.25;;;10.38;;
80557;SDS011;69901;43.524;-5.636;2023-11-21T06:05:17;15.35;;;10.85;;
80557;SDS011;69901;43.524;-5.636;2023-11-21T06:07:43;17.00;;;12.70;;
80557;SDS011;69901;43.524;-5.636;2023-11-21T06:10:10;17.70;;;11.63;;
80557;SDS011;69901;43.524;-5.636;2023-11-21T06:12:37;15.15;;;13.25;;
80557;SDS011;69901;43.524;-5.636;2023-11-21T06:15:05;15.68;;;12.45;;
80557;SDS011;69901;43.524;-5.636;2023-11-21T06:17:33;14.97;;;12.17;;
80557;SDS011;69901;43.524;-5.636;2023-11-21T06:20:20;12.23;;;10.65;;
80557;SDS011;69901;43.524;-5.636;2023-11-21T06:22:48;13.90;;;11.75;;
80557;SDS011;69901;43.524;-5.636;2023-11-21T06:25:15;17.63;;;12.45;;
80557;SDS011;69901;43.524;-5.636;2023-11-21T06:27:44;14.67;;;11.97;;
80557;SDS011;69901;43.524;-5.636;2023-11-21T06:30:11;17.10;;;11.48;;
80557;SDS011;69901;43.524;-5.636;2023-11-21T06:32:39;14.30;;;11.05;;
80557;SDS011;69901;43.524;-5.636;2023-11-21T06:35:05;16.25;;;12.13;;
80557;SDS011;69901;43.524;-5.636;2023-11-21T06:37:31;20.40;;;13.53;;
80557;SDS011;69901;43.524;-5.636;2023-11-21T06:39:57;14.70;;;12.57;;
80557;SDS011;69901;43.524;-5.636;2023-11-21T06:42:24;15.27;;;12.80;;
80557;SDS011;69901;43.524;-5.636;2023-11-21T06:44:51;19.10;;;12.75;;
80557;SDS011;69901;43.524;-5.636;2023-11-21T06:47:19;16.08;;;11.93;;
80557;SDS011;69901;43.524;-5.636;2023-11-21T06:49:45;14.30;;;12.47;;
80557;SDS011;69901;43.524;-5.636;2023-11-21T06:52:13;16.35;;;12.82;;
80557;SDS011;69901;43.524;-5.636;2023-11-21T06:54:39;17.40;;;11.75;;
80557;SDS011;69901;43.524;-5.636;2023-11-21T06:57:04;16.33;;;13.15;;
80557;SDS011;69901;43.524;-5.636;2023-11-21T06:59:30;15.40;;;13.03;;
80557;SDS011;69901;43.524;-5.636;2023-11-21T07:01:55;16.57;;;13.40;;
80557;SDS011;69901;43.524;-5.636;2023-11-21T07:04:21;17.10;;;11.67;;
80557;SDS011;69901;43.524;-5.636;2023-11-21T07:06:46;13.25;;;11.95;;
80557;SDS011;69901;43.524;-5.636;2023-11-21T07:09:12;14.87;;;13.33;;
80557;SDS011;69901;43.524;-5.636;2023-11-21T07:11:38;15.40;;;12.48;;
80557;SDS011;69901;43.524;-5.636;2023-11-21T07:14:03;16.60;;;12.37;;
80557;SDS011;69901;43.524;-5.636;2023-11-21T07:16:35;17.13;;;11.50;;
80557;SDS011;69901;43.524;-5.636;2023-11-21T07:19:05;16.95;;;12.73;;
80557;SDS011;69901;43.524;-5.636;2023-11-21T07:21:32;14.80;;;12.10;;
80557;SDS011;69901;43.524;-5.636;2023-11-21T07:23:59;17.77;;;12.30;;
80557;SDS011;69901;43.524;-5.636;2023-11-21T07:26:26;18.50;;;12.80;;
80557;SDS011;69901;43.524;-5.636;2023-11-21T07:28:52;19.27;;;13.95;;
80557;SDS011;69901;43.524;-5.636;2023-11-21T07:31:17;17.93;;;14.30;;
80557;SDS011;69901;43.524;-5.636;2023-11-21T07:33:44;17.70;;;12.65;;
80557;SDS011;69901;43.524;-5.636;2023-11-21T07:36:12;16.95;;;13.35;;
80557;SDS011;69901;43.524;-5.636;2023-11-21T07:38:38;15.45;;;12.70;;
80557;SDS011;69901;43.524;-5.636;2023-11-21T07:41:04;17.17;;;12.13;;
80557;SDS011;69901;43.524;-5.636;2023-11-21T07:43:35;10.38;;;9.27;;
80557;SDS011;69901;43.524;-5.636;2023-11-21T07:46:03;11.63;;;4.05;;
80557;SDS011;69901;43.524;-5.636;2023-11-21T07:48:29;18.35;;;5.03;;
80557;SDS011;69901;43.524;-5.636;2023-11-21T07:50:56;18.15;;;5.25;;
80557;SDS011;69901;43.524;-5.636;2023-11-21T07:53:23;11.47;;;4.07;;
80557;SDS011;69901;43.524;-5.636;2023-11-21T07:55:50;18.27;;;8.80;;
80557;SDS011;69901;43.524;-5.636;2023-11-21T07:58:17;14.32;;;9.93;;
80557;SDS011;69901;43.524;-5.636;2023-11-21T08:00:43;15.00;;;9.43;;
80557;SDS011;69901;43.524;-5.636;2023-11-21T08:03:09;13.43;;;10.30;;
80557;SDS011;69901;43.524;-5.636;2023-11-21T08:05:34;19.60;;;9.93;;
80557;SDS011;69901;43.524;-5.636;2023-11-21T08:08:00;20.63;;;10.60;;
80557;SDS011;69901;43.524;-5.636;2023-11-21T08:10:26;15.50;;;10.53;;
80557;SDS011;69901;43.524;-5.636;2023-11-21T08:12:51;16.42;;;10.93;;
80557;SDS011;69901;43.524;-5.636;2023-11-21T08:15:17;19.70;;;12.40;;
80557;SDS011;69901;43.524;-5.636;2023-11-21T08:17:43;16.15;;;13.02;;
80557;SDS011;69901;43.524;-5.636;2023-11-21T08:20:09;20.67;;;13.73;;
80557;SDS011;69901;43.524;-5.636;2023-11-21T08:22:36;17.75;;;13.27;;
80557;SDS011;69901;43.524;-5.636;2023-11-21T08:25:02;19.70;;;14.80;;
80557;SDS011;69901;43.524;-5.636;2023-11-21T08:27:29;19.30;;;15.30;;
80557;SDS011;69901;43.524;-5.636;2023-11-21T08:29:55;19.73;;;14.27;;
80557;SDS011;69901;43.524;-5.636;2023-11-21T08:32:22;23.45;;;13.38;;
80557;SDS011;69901;43.524;-5.636;2023-11-21T08:34:47;19.60;;;14.63;;
80557;SDS011;69901;43.524;-5.636;2023-11-21T08:37:16;19.67;;;15.13;;
80557;SDS011;69901;43.524;-5.636;2023-11-21T08:39:43;18.83;;;14.13;;
80557;SDS011;69901;43.524;-5.636;2023-11-21T08:42:09;15.27;;;13.65;;
80557;SDS011;69901;43.524;-5.636;2023-11-21T08:44:35;18.20;;;13.23;;
80557;SDS011;69901;43.524;-5.636;2023-11-21T08:47:00;16.30;;;12.73;;
80557;SDS011;69901;43.524;-5.636;2023-11-21T08:49:28;14.73;;;12.37;;
80557;SDS011;69901;43.524;-5.636;2023-11-21T08:51:57;15.38;;;12.57;;
80557;SDS011;69901;43.524;-5.636;2023-11-21T08:54:26;16.55;;;13.32;;
80557;SDS011;69901;43.524;-5.636;2023-11-21T08:56:52;16.40;;;11.97;;
80557;SDS011;69901;43.524;-5.636;2023-11-21T08:59:20;13.90;;;11.65;;
80557;SDS011;69901;43.524;-5.636;2023-11-21T09:01:46;16.25;;;13.00;;
80557;SDS011;69901;43.524;-5.636;2023-11-21T09:04:12;16.20;;;12.07;;
80557;SDS011;69901;43.524;-5.636;2023-11-21T09:06:38;18.13;;;12.63;;
80557;SDS011;69901;43.524;-5.636;2023-11-21T09:09:05;14.70;;;12.68;;
80557;SDS011;69901;43.524;-5.636;2023-11-21T09:11:34;13.25;;;10.15;;
80557;SDS011;69901;43.524;-5.636;2023-11-21T09:14:00;14.85;;;3.00;;
80557;SDS011;69901;43.524;-5.636;2023-11-21T09:16:26;11.77;;;2.60;;
80557;SDS011;69901;43.524;-5.636;2023-11-21T09:18:51;14.43;;;2.80;;
80557;SDS011;69901;43.524;-5.636;2023-11-21T09:21:17;14.30;;;2.72;;
80557;SDS011;69901;43.524;-5.636;2023-11-21T09:23:46;15.77;;;2.97;;
80557;SDS011;69901;43.524;-5.636;2023-11-21T09:26:13;12.48;;;2.30;;
80557;SDS011;69901;43.524;-5.636;2023-11-21T09:28:41;15.50;;;2.42;;
80557;SDS011;69901;43.524;-5.636;2023-11-21T09:31:11;16.95;;;2.60;;
80557;SDS011;69901;43.524;-5.636;2023-11-21T09:33:37;14.97;;;2.60;;
80557;SDS011;69901;43.524;-5.636;2023-11-21T09:36:03;11.82;;;2.67;;
80557;SDS011;69901;43.524;-5.636;2023-11-21T09:38:30;14.50;;;2.25;;
80557;SDS011;69901;43.524;-5.636;2023-11-21T09:40:56;12.27;;;2.30;;
80557;SDS011;69901;43.524;-5.636;2023-11-21T09:43:23;10.55;;;2.22;;
80557;SDS011;69901;43.524;-5.636;2023-11-21T09:45:56;14.05;;;2.50;;
80557;SDS011;69901;43.524;-5.636;2023-11-21T09:48:25;13.02;;;2.13;;
80557;SDS011;69901;43.524;-5.636;2023-11-21T09:50:52;11.82;;;2.03;;
80557;SDS011;69901;43.524;-5.636;2023-11-21T09:53:22;9.77;;;1.97;;
80557;SDS011;69901;43.524;-5.636;2023-11-21T09:55:50;11.65;;;2.33;;
80557;SDS011;69901;43.524;-5.636;2023-11-21T09:58:18;12.63;;;2.65;;
80557;SDS011;69901;43.524;-5.636;2023-11-21T10:00:48;11.55;;;2.72;;
80557;SDS011;69901;43.524;-5.636;2023-11-21T10:03:17;11.65;;;2.90;;
80557;SDS011;69901;43.524;-5.636;2023-11-21T10:05:43;12.47;;;9.27;;
80557;SDS011;69901;43.524;-5.636;2023-11-21T10:08:11;13.30;;;9.45;;
80557;SDS011;69901;43.524;-5.636;2023-11-21T10:10:37;14.23;;;10.27;;
80557;SDS011;69901;43.524;-5.636;2023-11-21T10:13:08;18.17;;;11.70;;
80557;SDS011;69901;43.524;-5.636;2023-11-21T10:15:37;14.07;;;11.98;;
80557;SDS011;69901;43.524;-5.636;2023-11-21T10:18:03;20.23;;;14.13;;
80557;SDS011;69901;43.524;-5.636;2023-11-21T10:20:33;18.95;;;14.93;;
80557;SDS011;69901;43.524;-5.636;2023-11-21T10:22:59;14.70;;;13.13;;
80557;SDS011;69901;43.524;-5.636;2023-11-21T10:25:31;13.57;;;11.60;;
80557;SDS011;69901;43.524;-5.636;2023-11-21T10:27:57;15.80;;;12.30;;
80557;SDS011;69901;43.524;-5.636;2023-11-21T10:30:35;15.57;;;13.15;;
80557;SDS011;69901;43.524;-5.636;2023-11-21T10:33:03;18.13;;;11.75;;
80557;SDS011;69901;43.524;-5.636;2023-11-21T10:35:39;15.30;;;11.30;;
80557;SDS011;69901;43.524;-5.636;2023-11-21T10:38:12;15.50;;;11.80;;
80557;SDS011;69901;43.524;-5.636;2023-11-21T10:40:40;15.98;;;11.35;;
80557;SDS011;69901;43.524;-5.636;2023-11-21T10:43:06;15.23;;;11.27;;
80557;SDS011;69901;43.524;-5.636;2023-11-21T10:45:38;14.18;;;11.35;;
80557;SDS011;69901;43.524;-5.636;2023-11-21T10:48:05;13.13;;;9.53;;
80557;SDS011;69901;43.524;-5.636;2023-11-21T10:50:33;14.73;;;10.57;;
80557;SDS011;69901;43.524;-5.636;2023-11-21T10:53:04;12.18;;;10.07;;
80557;SDS011;69901;43.524;-5.636;2023-11-21T10:55:30;13.40;;;10.90;;
80557;SDS011;69901;43.524;-5.636;2023-11-21T10:58:01;15.70;;;10.95;;
80557;SDS011;69901;43.524;-5.636;2023-11-21T11:00:30;15.50;;;11.70;;
80557;SDS011;69901;43.524;-5.636;2023-11-21T11:02:57;13.40;;;10.07;;
80557;SDS011;69901;43.524;-5.636;2023-11-21T11:05:24;14.30;;;10.60;;
80557;SDS011;69901;43.524;-5.636;2023-11-21T11:08:07;15.13;;;10.40;;
80557;SDS011;69901;43.524;-5.636;2023-11-21T11:10:36;17.38;;;10.35;;
80557;SDS011;69901;43.524;-5.636;2023-11-21T11:13:02;12.87;;;10.23;;
80557;SDS011;69901;43.524;-5.636;2023-11-21T11:15:29;17.52;;;10.30;;
80557;SDS011;69901;43.524;-5.636;2023-11-21T11:17:55;13.10;;;10.40;;
80557;SDS011;69901;43.524;-5.636;2023-11-21T11:20:23;10.98;;;9.88;;
80557;SDS011;69901;43.524;-5.636;2023-11-21T11:28:14;12.10;;;10.63;;
80557;SDS011;69901;43.524;-5.636;2023-11-21T11:31:27;11.98;;;10.82;;
80557;SDS011;69901;43.524;-5.636;2023-11-21T11:33:53;12.25;;;10.45;;
80557;SDS011;69901;43.524;-5.636;2023-11-21T11:38:52;11.60;;;10.35;;
80557;SDS011;69901;43.524;-5.636;2023-11-21T11:41:25;12.73;;;9.80;;
80557;SDS011;69901;43.524;-5.636;2023-11-21T11:43:53;16.60;;;10.95;;
80557;SDS011;69901;43.524;-5.636;2023-11-21T11:46:19;15.50;;;12.57;;
80557;SDS011;69901;43.524;-5.636;2023-11-21T11:48:48;13.63;;;10.53;;
80557;SDS011;69901;43.524;-5.636;2023-11-21T11:51:28;11.25;;;10.13;;
80557;SDS011;69901;43.524;-5.636;2023-11-21T11:53:53;18.83;;;13.20;;
80557;SDS011;69901;43.524;-5.636;2023-11-21T11:56:29;14.87;;;10.97;;
80557;SDS011;69901;43.524;-5.636;2023-11-21T11:58:58;14.55;;;12.18;;
80557;SDS011;69901;43.524;-5.636;2023-11-21T12:01:27;13.57;;;11.52;;
80557;SDS011;69901;43.524;-5.636;2023-11-21T12:06:56;15.05;;;11.23;;
80557;SDS011;69901;43.524;-5.636;2023-11-21T12:09:25;12.75;;;11.38;;
80557;SDS011;69901;43.524;-5.636;2023-11-21T12:11:52;22.02;;;11.93;;
80557;SDS011;69901;43.524;-5.636;2023-11-21T12:14:21;12.35;;;10.75;;
80557;SDS011;69901;43.524;-5.636;2023-11-21T12:16:47;11.40;;;9.67;;
80557;SDS011;69901;43.524;-5.636;2023-11-21T12:19:13;12.23;;;11.05;;
80557;SDS011;69901;43.524;-5.636;2023-11-21T12:21:39;12.03;;;10.83;;
80557;SDS011;69901;43.524;-5.636;2023-11-21T12:24:09;13.05;;;10.80;;
80557;SDS011;69901;43.524;-5.636;2023-11-21T12:26:34;13.00;;;9.90;;
80557;SDS011;69901;43.524;-5.636;2023-11-21T12:29:03;14.40;;;10.33;;
80557;SDS011;69901;43.524;-5.636;2023-11-21T12:31:29;19.38;;;10.57;;
80557;SDS011;69901;43.524;-5.636;2023-11-21T12:33:55;12.40;;;9.90;;
80557;SDS011;69901;43.524;-5.636;2023-11-21T12:36:22;14.50;;;10.68;;
80557;SDS011;69901;43.524;-5.636;2023-11-21T12:38:48;14.27;;;12.13;;
80557;SDS011;69901;43.524;-5.636;2023-11-21T12:41:14;13.20;;;11.83;;
80557;SDS011;69901;43.524;-5.636;2023-11-21T12:43:42;14.07;;;12.75;;
80557;SDS011;69901;43.524;-5.636;2023-11-21T12:46:08;15.48;;;11.82;;
80557;SDS011;69901;43.524;-5.636;2023-11-21T12:48:41;14.18;;;11.23;;
80557;SDS011;69901;43.524;-5.636;2023-11-21T12:51:09;12.55;;;10.30;;
80557;SDS011;69901;43.524;-5.636;2023-11-21T12:53:35;12.90;;;10.60;;
80557;SDS011;69901;43.524;-5.636;2023-11-21T12:56:10;14.13;;;10.73;;
80557;SDS011;69901;43.524;-5.636;2023-11-21T12:58:36;17.73;;;11.73;;
80557;SDS011;69901;43.524;-5.636;2023-11-21T13:01:09;11.35;;;10.10;;
80557;SDS011;69901;43.524;-5.636;2023-11-21T13:03:39;14.38;;;10.73;;
80557;SDS011;69901;43.524;-5.636;2023-11-21T13:06:06;17.07;;;10.37;;
80557;SDS011;69901;43.524;-5.636;2023-11-21T13:08:32;12.25;;;10.98;;
80557;SDS011;69901;43.524;-5.636;2023-11-21T13:10:59;12.85;;;11.30;;
80557;SDS011;69901;43.524;-5.636;2023-11-21T13:13:25;16.95;;;11.70;;
80557;SDS011;69901;43.524;-5.636;2023-11-21T13:15:54;13.27;;;10.97;;
80557;SDS011;69901;43.524;-5.636;2023-11-21T13:18:31;12.02;;;10.63;;
80557;SDS011;69901;43.524;-5.636;2023-11-21T13:21:06;12.13;;;10.88;;
80557;SDS011;69901;43.524;-5.636;2023-11-21T13:23:38;18.05;;;11.40;;
80557;SDS011;69901;43.524;-5.636;2023-11-21T13:26:05;12.68;;;10.73;;
80557;SDS011;69901;43.524;-5.636;2023-11-21T13:28:32;16.13;;;11.23;;
80557;SDS011;69901;43.524;-5.636;2023-11-21T13:30:58;13.82;;;11.02;;
80557;SDS011;69901;43.524;-5.636;2023-11-21T13:33:43;16.63;;;11.70;;
80557;SDS011;69901;43.524;-5.636;2023-11-21T13:36:15;12.60;;;10.43;;
80557;SDS011;69901;43.524;-5.636;2023-11-21T13:38:47;16.65;;;11.20;;
80557;SDS011;69901;43.524;-5.636;2023-11-21T13:41:14;13.47;;;11.33;;
80557;SDS011;69901;43.524;-5.636;2023-11-21T13:43:39;14.15;;;11.00;;
80557;SDS011;69901;43.524;-5.636;2023-11-21T13:46:08;16.80;;;11.93;;
80557;SDS011;69901;43.524;-5.636;2023-11-21T13:48:46;15.65;;;11.00;;
80557;SDS011;69901;43.524;-5.636;2023-11-21T13:51:21;14.93;;;10.40;;
80557;SDS011;69901;43.524;-5.636;2023-11-21T13:53:55;12.15;;;10.77;;
80557;SDS011;69901;43.524;-5.636;2023-11-21T13:56:21;14.80;;;11.17;;
80557;SDS011;69901;43.524;-5.636;2023-11-21T13:58:50;12.47;;;10.67;;
80557;SDS011;69901;43.524;-5.636;2023-11-21T14:01:17;15.07;;;10.20;;
80557;SDS011;69901;43.524;-5.636;2023-11-21T14:03:55;15.68;;;11.02;;
80557;SDS011;69901;43.524;-5.636;2023-11-21T14:06:36;14.43;;;10.80;;
80557;SDS011;69901;43.524;-5.636;2023-11-21T14:09:12;15.10;;;10.90;;
80557;SDS011;69901;43.524;-5.636;2023-11-21T14:11:47;13.93;;;10.93;;
80557;SDS011;69901;43.524;-5.636;2023-11-21T14:14:17;14.32;;;11.48;;
80557;SDS011;69901;43.524;-5.636;2023-11-21T14:16:43;12.50;;;10.82;;
80557;SDS011;69901;43.524;-5.636;2023-11-21T14:19:09;13.13;;;11.77;;
80557;SDS011;69901;43.524;-5.636;2023-11-21T14:21:41;15.15;;;11.20;;
80557;SDS011;69901;43.524;-5.636;2023-11-21T14:24:10;13.17;;;11.77;;